createdAt,value
2023-04-16T00:00:35.385Z,44.22
2023-04-16T00:03:40.660Z,44.16
2023-04-16T00:06:25.095Z,44.49
2023-04-16T00:09:03.907Z,44.69
2023-04-16T00:25:16.421Z,44.21
2023-04-16T00:28:47.579Z,44.19
2023-04-16T00:32:25.887Z,44.35
2023-04-16T00:34:58.572Z,44.38
2023-04-16T00:37:44.011Z,44.41
2023-04-16T00:40:31.814Z,44.31
2023-04-16T00:43:24.924Z,44.20
2023-04-16T00:45:57.918Z,44.85
2023-04-16T00:48:32.941Z,44.12
2023-04-16T00:52:04.830Z,44.63
2023-04-16T00:55:28.371Z,44.58
2023-04-16T00:58:04.978Z,44.83
2023-04-16T01:06:32.297Z,44.15
2023-04-16T01:10:26.325Z,44.80
2023-04-16T01:13:20.639Z,44.93
2023-04-16T01:16:39.993Z,44.27
2023-04-16T01:19:12.477Z,44.69
2023-04-16T01:21:48.001Z,45.09
2023-04-16T01:24:40.555Z,44.71
2023-04-16T01:27:29.193Z,44.63
2023-04-16T01:30:02.128Z,44.17
2023-04-16T01:32:38.406Z,44.93
2023-04-16T01:37:55.928Z,44.44
2023-04-16T01:40:28.546Z,44.81
2023-04-16T01:43:21.331Z,44.38
2023-04-16T01:46:14.307Z,44.94
2023-04-16T01:52:39.039Z,45.14
2023-04-16T01:58:49.531Z,44.98
2023-04-16T02:01:24.949Z,44.96
2023-04-16T02:03:57.971Z,44.82
2023-04-16T02:06:46.794Z,45.07
2023-04-16T02:09:19.353Z,45.04
2023-04-16T02:12:07.904Z,45.23
2023-04-16T02:14:43.976Z,44.40
2023-04-16T02:17:19.994Z,44.97
2023-04-16T02:22:54.419Z,44.63
2023-04-16T02:25:41.320Z,45.23
2023-04-16T02:28:29.442Z,44.69
2023-04-16T02:31:11.288Z,45.21
2023-04-16T02:33:46.451Z,45.13
2023-04-16T02:36:19.116Z,44.78
2023-04-16T02:38:56.101Z,45.30
2023-04-16T02:41:28.819Z,45.16
2023-04-16T02:44:02.796Z,44.53
2023-04-16T02:46:38.522Z,44.83
2023-04-16T02:49:51.947Z,44.99
2023-04-16T02:52:42.258Z,44.68
2023-04-16T02:55:32.847Z,45.02
2023-04-16T02:58:05.581Z,44.54
2023-04-16T03:00:38.355Z,45.19
2023-04-16T03:03:15.200Z,44.83
2023-04-16T03:05:49.859Z,45.08
2023-04-16T03:08:37.984Z,44.68
2023-04-16T03:11:16.865Z,45.43
2023-04-16T03:13:49.595Z,45.45
2023-04-16T03:16:22.436Z,45.05
2023-04-16T03:19:03.703Z,45.28
2023-04-16T03:21:36.322Z,44.83
2023-04-16T03:24:23.533Z,45.43
2023-04-16T03:27:08.394Z,44.85
2023-04-16T03:29:46.944Z,45.22
2023-04-16T03:32:19.487Z,45.23
2023-04-16T03:34:52.073Z,45.28
2023-04-16T03:37:29.946Z,45.21
2023-04-16T03:40:07.428Z,45.58
2023-04-16T03:42:39.978Z,45.45
2023-04-16T03:45:15.738Z,45.88
2023-04-16T03:47:57.457Z,45.29
2023-04-16T03:50:32.882Z,45.55
2023-04-16T03:53:11.497Z,45.32
2023-04-16T03:55:56.265Z,45.47
2023-04-16T04:01:18.313Z,45.54
2023-04-16T04:04:04.370Z,45.05
2023-04-16T04:06:45.015Z,45.41
2023-04-16T04:09:23.724Z,45.42
2023-04-16T04:11:59.428Z,45.29
2023-04-16T04:14:47.184Z,45.61
2023-04-16T04:17:20.086Z,45.25
2023-04-16T04:20:04.584Z,45.12
2023-04-16T04:22:54.328Z,45.66
2023-04-16T04:25:27.035Z,45.01
2023-04-16T04:27:59.622Z,45.67
2023-04-16T04:30:39.752Z,45.83
2023-04-16T04:36:02.688Z,45.74
2023-04-16T04:38:44.772Z,45.13
2023-04-16T04:41:23.966Z,45.45
2023-04-16T04:43:58.470Z,45.31
2023-04-16T04:46:37.136Z,45.70
2023-04-16T04:49:10.071Z,45.89
2023-04-16T04:51:46.524Z,45.51
2023-04-16T04:54:20.124Z,45.38
2023-04-16T04:56:52.744Z,45.36
2023-04-16T04:59:40.428Z,45.49
2023-04-16T05:02:18.411Z,45.67
2023-04-16T05:04:51.147Z,45.82
2023-04-16T05:07:38.152Z,45.90
2023-04-16T05:10:22.394Z,45.39
2023-04-16T05:13:06.556Z,45.47
2023-04-16T05:15:51.222Z,45.77
2023-04-16T05:18:27.911Z,45.38
2023-04-16T05:21:03.838Z,45.88
2023-04-16T05:23:48.513Z,45.83
2023-04-16T05:26:32.100Z,45.48
2023-04-16T05:29:16.977Z,45.55
2023-04-16T05:31:56.843Z,45.60
2023-04-16T05:37:16.251Z,45.71
2023-04-16T05:39:53.717Z,45.70
2023-04-16T05:42:38.667Z,45.59
2023-04-16T05:45:17.191Z,45.73
2023-04-16T05:47:55.813Z,45.75
2023-04-16T05:50:31.049Z,45.69
2023-04-16T05:53:15.762Z,45.92
2023-04-16T05:55:48.243Z,46.12
2023-04-16T05:58:20.717Z,45.82
2023-04-16T06:01:05.804Z,45.76
2023-04-16T06:03:38.526Z,46.28
2023-04-16T06:06:11.222Z,45.95
2023-04-16T06:11:49.839Z,46.54
2023-04-16T06:14:22.560Z,46.59
2023-04-16T06:16:55.223Z,46.25
2023-04-16T06:19:39.879Z,46.43
2023-04-16T06:22:12.525Z,45.81
2023-04-16T06:27:34.204Z,46.48
2023-04-16T06:34:45.486Z,45.85
2023-04-16T06:41:02.716Z,45.78
2023-04-16T06:46:23.917Z,45.65
2023-04-16T06:49:00.856Z,46.61
2023-04-16T06:51:42.863Z,46.52
2023-04-16T06:54:21.346Z,45.70
2023-04-16T06:59:42.849Z,45.99
2023-04-16T07:02:17.835Z,45.61
2023-04-16T07:04:59.530Z,45.53
2023-04-16T07:07:32.851Z,46.44
2023-04-16T07:10:24.001Z,45.65
2023-04-16T07:16:06.286Z,45.63
2023-04-16T07:18:56.623Z,46.38
2023-04-16T07:21:29.187Z,46.10
2023-04-16T07:24:29.121Z,45.45
2023-04-16T07:34:17.463Z,46.50
2023-04-16T07:37:02.270Z,46.63
2023-04-16T07:39:46.696Z,46.50
2023-04-16T07:43:16.061Z,45.47
2023-04-16T07:45:51.145Z,46.46
2023-04-16T07:48:29.625Z,46.38
2023-04-16T07:51:18.049Z,46.39
2023-04-16T07:56:49.432Z,45.60
2023-04-16T07:59:23.985Z,45.37
2023-04-16T08:01:57.359Z,45.94
2023-04-16T08:04:38.168Z,45.96
2023-04-16T08:07:29.236Z,45.21
2023-04-16T08:10:03.302Z,46.25
2023-04-16T08:12:57.171Z,45.18
2023-04-16T08:15:30.164Z,45.32
2023-04-16T08:18:18.742Z,46.16
2023-04-16T08:21:13.845Z,46.01
2023-04-16T08:32:40.134Z,45.33
2023-04-16T08:42:35.289Z,45.22
2023-04-16T08:52:31.440Z,45.20
2023-04-16T08:58:15.541Z,45.30
2023-04-16T09:01:39.962Z,46.22
2023-04-16T09:04:28.394Z,45.99
2023-04-16T09:07:04.718Z,45.58
2023-04-16T09:09:39.154Z,45.05
2023-04-16T09:12:24.181Z,46.09
2023-04-16T09:14:57.302Z,45.39
2023-04-16T09:17:43.209Z,45.76
2023-04-16T09:20:38.537Z,45.16
2023-04-16T09:26:57.906Z,45.33
2023-04-16T09:30:04.416Z,45.28
2023-04-16T09:32:40.508Z,45.78
2023-04-16T09:39:12.026Z,46.38
2023-04-16T09:44:45.265Z,46.25
2023-04-16T09:47:42.843Z,45.48
2023-04-16T09:54:54.554Z,45.47
2023-04-16T10:00:25.307Z,46.10
2023-04-16T10:09:24.557Z,46.21
2023-04-16T10:11:57.513Z,46.24
2023-04-16T10:14:30.106Z,46.68
2023-04-16T10:17:04.468Z,46.13
2023-04-16T10:19:37.430Z,46.76
2023-04-16T10:22:37.128Z,46.58
2023-04-16T10:28:37.008Z,46.66
2023-04-16T10:31:15.323Z,45.94
2023-04-16T10:33:48.374Z,46.52
2023-04-16T10:36:52.473Z,46.00
2023-04-16T10:39:50.579Z,46.19
2023-04-16T10:43:15.085Z,45.98
2023-04-16T10:53:28.627Z,47.04
2023-04-16T10:56:04.660Z,46.06
2023-04-16T10:59:02.736Z,46.21
2023-04-16T11:02:09.519Z,46.07
2023-04-16T11:05:21.320Z,45.98
2023-04-16T11:08:23.386Z,46.26
2023-04-16T11:11:17.004Z,47.19
2023-04-16T11:13:49.874Z,47.05
2023-04-16T11:16:52.586Z,46.16
2023-04-16T11:19:28.066Z,46.24
2023-04-16T11:22:04.201Z,46.11
2023-04-16T11:24:56.891Z,46.85
2023-04-16T11:33:27.891Z,46.90
2023-04-16T11:36:05.157Z,47.19
2023-04-16T11:42:09.132Z,46.38
2023-04-16T11:44:45.152Z,46.89
2023-04-16T11:48:11.365Z,46.23
2023-04-16T11:50:44.005Z,46.76
2023-04-16T11:54:05.876Z,47.02
2023-04-16T11:56:40.056Z,45.97
2023-04-16T11:59:38.602Z,46.70
2023-04-16T12:03:15.933Z,46.79
2023-04-16T12:06:08.089Z,46.38
2023-04-16T12:12:02.315Z,46.08
2023-04-16T12:14:34.995Z,46.97
2023-04-16T12:17:28.154Z,46.30
2023-04-16T12:20:51.468Z,46.03
2023-04-16T12:26:52.296Z,45.69
2023-04-16T12:29:26.366Z,46.13
2023-04-16T12:32:23.642Z,46.05
2023-04-16T12:35:20.684Z,46.14
2023-04-16T12:38:15.703Z,46.14
2023-04-16T12:41:22.557Z,45.82
2023-04-16T12:44:07.020Z,46.38
2023-04-16T12:46:55.219Z,46.01
2023-04-16T12:52:39.285Z,46.34
2023-04-16T12:55:12.632Z,46.64
2023-04-16T13:01:44.634Z,45.92
2023-04-16T13:04:36.509Z,46.15
2023-04-16T13:07:09.121Z,45.82
2023-04-16T13:09:41.729Z,46.23
2023-04-16T13:12:22.800Z,45.98
2023-04-16T13:14:58.575Z,45.62
2023-04-16T13:17:35.480Z,46.56
2023-04-16T13:20:31.538Z,47.12
2023-04-16T13:23:29.096Z,46.07
2023-04-16T13:26:05.680Z,45.87
2023-04-16T13:28:54.160Z,46.86
2023-04-16T13:31:27.384Z,46.94
2023-04-16T13:34:15.216Z,46.57
2023-04-16T13:36:48.120Z,46.91
2023-04-16T13:42:23.682Z,46.17
2023-04-16T13:45:52.466Z,46.83
2023-04-16T13:48:18.049Z,46.08
2023-04-16T13:50:50.940Z,47.03
2023-04-16T13:53:23.640Z,46.95
2023-04-16T13:56:20.436Z,45.93
2023-04-16T13:58:53.500Z,46.95
2023-04-16T14:01:44.340Z,45.83
2023-04-16T14:07:30.069Z,47.10
2023-04-16T14:10:18.156Z,47.29
2023-04-16T14:13:13.216Z,47.02
2023-04-16T14:16:01.342Z,46.66
2023-04-16T14:18:34.023Z,47.33
2023-04-16T14:21:32.474Z,47.35
2023-04-16T14:24:05.577Z,47.04
2023-04-16T14:27:05.002Z,46.34
2023-04-16T14:29:56.480Z,46.33
2023-04-16T14:32:40.109Z,47.03
2023-04-16T14:35:30.535Z,46.59
2023-04-16T14:38:21.025Z,47.05
2023-04-16T14:41:09.174Z,45.91
2023-04-16T14:43:42.082Z,46.05
2023-04-16T14:49:12.224Z,47.49
2023-04-16T14:55:15.092Z,46.41
2023-04-16T14:57:56.408Z,47.39
2023-04-16T15:00:55.691Z,46.18
2023-04-16T15:03:33.893Z,46.49
2023-04-16T15:09:21.634Z,47.30
2023-04-16T15:12:20.063Z,47.18
2023-04-16T15:15:11.365Z,46.75
2023-04-16T15:21:12.681Z,46.69
2023-04-16T15:24:03.350Z,47.50
2023-04-16T15:30:01.364Z,46.63
2023-04-16T15:32:55.792Z,47.48
2023-04-16T15:35:29.691Z,47.12
2023-04-16T15:38:45.815Z,46.73
2023-04-16T15:50:35.940Z,46.39
2023-04-16T15:53:09.023Z,46.69
2023-04-16T15:55:52.821Z,47.01
2023-04-16T15:58:25.720Z,46.57
2023-04-16T16:01:19.175Z,46.58
2023-04-16T16:03:55.744Z,46.57
2023-04-16T16:06:28.676Z,46.10
2023-04-16T16:09:01.873Z,46.94
2023-04-16T16:11:34.688Z,46.77
2023-04-16T16:14:22.696Z,46.39
2023-04-16T16:17:01.197Z,47.13
2023-04-16T16:19:52.558Z,46.58
2023-04-16T16:22:25.485Z,47.00
2023-04-16T16:27:47.443Z,47.01
2023-04-16T16:30:20.044Z,46.58
2023-04-16T16:32:55.643Z,47.13
2023-04-16T16:35:28.248Z,46.55
2023-04-16T16:41:03.971Z,46.53
2023-04-16T16:43:38.491Z,46.38
2023-04-16T16:46:11.510Z,46.26
2023-04-16T16:52:15.491Z,46.51
2023-04-16T16:54:48.074Z,46.30
2023-04-16T16:55:09.728Z,46.97
2023-04-16T17:00:14.510Z,46.63
2023-04-16T17:03:08.955Z,46.83
2023-04-16T17:05:41.934Z,46.42
2023-04-16T17:08:34.873Z,47.19
2023-04-16T17:11:08.494Z,46.66
2023-04-16T17:16:27.409Z,46.64
2023-04-16T17:19:01.293Z,46.54
2023-04-16T17:21:33.952Z,46.70
2023-04-16T17:26:56.979Z,46.37
2023-04-16T17:29:30.380Z,46.35
2023-04-16T17:32:03.010Z,45.98
2023-04-16T17:35:18.549Z,46.46
2023-04-16T17:38:12.454Z,46.49
2023-04-16T17:40:57.862Z,46.30
2023-04-16T17:47:15.208Z,46.45
2023-04-16T17:50:09.802Z,46.86
2023-04-16T18:06:41.665Z,46.56
2023-04-16T18:20:56.064Z,47.32
2023-04-16T18:23:47.950Z,46.84
2023-04-16T18:41:27.485Z,46.70
2023-04-16T18:46:44.609Z,46.47
2023-04-16T18:49:41.363Z,46.78
2023-04-16T18:52:14.075Z,47.54
2023-04-16T18:55:06.942Z,47.57
2023-04-16T19:01:06.288Z,47.79
2023-04-16T19:04:33.364Z,46.69
2023-04-16T19:07:24.045Z,47.23
2023-04-16T19:09:56.969Z,47.63
2023-04-16T19:12:43.893Z,46.54
2023-04-16T19:15:20.437Z,47.32
2023-04-16T19:17:54.189Z,47.42
2023-04-16T19:20:30.427Z,46.85
2023-04-16T19:25:56.278Z,47.63
2023-04-16T19:28:43.816Z,47.34
2023-04-16T19:31:34.792Z,46.79
2023-04-16T19:34:07.444Z,47.40
2023-04-16T19:36:40.177Z,46.61
2023-04-16T19:39:12.900Z,46.52
2023-04-16T19:42:07.995Z,47.67
2023-04-16T19:44:40.521Z,46.83
2023-04-16T19:50:24.572Z,47.49
2023-04-16T19:52:57.027Z,47.67
2023-04-16T19:55:29.532Z,47.72
2023-04-16T19:58:06.482Z,46.87
2023-04-16T20:00:49.859Z,47.65
2023-04-16T20:03:22.493Z,47.05
2023-04-16T20:05:55.041Z,46.57
2023-04-16T20:08:33.631Z,46.59
2023-04-16T20:11:08.694Z,46.81
2023-04-16T20:13:41.264Z,46.72
2023-04-16T20:16:15.038Z,47.42
2023-04-16T20:18:54.209Z,46.63
2023-04-16T20:21:26.868Z,47.05
2023-04-16T20:24:02.719Z,46.70
2023-04-16T20:26:36.642Z,47.76
2023-04-16T20:29:10.378Z,47.07
2023-04-16T20:31:44.403Z,46.79
2023-04-16T20:39:03.867Z,47.52
2023-04-16T20:46:35.486Z,47.90
2023-04-16T20:49:09.415Z,46.80
2023-04-16T20:51:42.086Z,46.90
2023-04-16T20:54:24.435Z,46.96
2023-04-16T20:55:21.861Z,46.90
2023-04-16T20:57:02.280Z,46.81
2023-04-16T21:02:28.791Z,47.27
2023-04-16T21:05:02.103Z,46.89
2023-04-16T21:07:34.617Z,46.95
2023-04-16T21:10:08.694Z,47.88
2023-04-16T21:12:41.082Z,46.80
2023-04-16T21:15:25.671Z,47.19
2023-04-16T21:17:58.155Z,47.12
2023-04-16T21:20:48.352Z,46.78
2023-04-16T21:23:21.042Z,47.45
2023-04-16T21:26:10.963Z,46.83
2023-04-16T21:28:43.802Z,46.87
2023-04-16T21:31:17.296Z,47.31
2023-04-16T21:33:49.872Z,46.86
2023-04-16T21:36:40.110Z,47.04
2023-04-16T21:42:21.004Z,47.57
2023-04-16T21:45:12.248Z,47.54
2023-04-16T21:47:44.864Z,46.85
2023-04-16T21:50:20.531Z,47.03
2023-04-16T21:53:13.760Z,47.09
2023-04-16T21:55:46.472Z,47.01
2023-04-16T21:58:35.450Z,47.01
2023-04-16T22:01:10.857Z,46.87
2023-04-16T22:03:57.129Z,46.87
2023-04-16T22:06:32.378Z,46.99
2023-04-16T22:09:05.139Z,48.16
2023-04-16T22:11:38.392Z,47.94
2023-04-16T22:14:10.965Z,47.02
2023-04-16T22:17:02.095Z,47.98
2023-04-16T22:19:37.348Z,46.90
2023-04-16T22:22:30.401Z,46.88
2023-04-16T22:25:05.959Z,47.84
2023-04-16T22:28:01.366Z,47.07
2023-04-16T22:30:33.960Z,47.01
2023-04-16T22:33:06.779Z,47.70
2023-04-16T22:35:39.615Z,48.11
2023-04-16T22:38:12.237Z,47.95
2023-04-16T22:42:42.683Z,47.24
2023-04-16T22:45:33.679Z,48.02
2023-04-16T22:48:15.736Z,48.18
2023-04-16T22:50:48.754Z,48.04
2023-04-16T22:53:33.508Z,48.07
2023-04-16T22:56:06.509Z,47.03
2023-04-16T22:58:57.466Z,48.24
2023-04-16T23:01:47.697Z,48.23
2023-04-16T23:04:20.420Z,47.92
2023-04-16T23:06:58.816Z,47.37
2023-04-16T23:09:31.512Z,47.30
2023-04-16T23:12:04.364Z,47.04
2023-04-16T23:17:25.719Z,47.42
2023-04-16T23:19:58.465Z,48.03
2023-04-16T23:22:31.053Z,48.10
2023-04-16T23:25:03.955Z,47.50
2023-04-16T23:27:37.348Z,48.27
2023-04-16T23:32:59.573Z,47.70
2023-04-16T23:35:44.115Z,47.45
2023-04-16T23:38:16.703Z,48.06
2023-04-16T23:40:49.281Z,48.04
2023-04-16T23:43:22.796Z,47.73
2023-04-16T23:46:10.975Z,47.98
2023-04-16T23:48:43.525Z,47.87
2023-04-16T23:51:38.663Z,47.69
2023-04-16T23:54:09.504Z,48.22
2023-04-16T23:56:42.179Z,48.07
2023-04-16T23:59:33.002Z,48.00
